sensor_id;sensor_type;location;lat;lon;timestamp;pressure;altitude;pressure_sealevel;temperature;humidity
12666;BME280;58531;59.050;17.416;2022-08-03T00:00:51;100798.91;;;13.98;96.78
12666;BME280;58531;59.050;17.416;2022-08-03T00:03:17;100811.41;;;14.01;96.40
12666;BME280;58531;59.050;17.416;2022-08-03T00:05:44;100807.25;;;14.00;96.67
12666;BME280;58531;59.050;17.416;2022-08-03T00:08:12;100804.25;;;13.98;96.73
12666;BME280;58531;59.050;17.416;2022-08-03T00:10:39;100803.97;;;13.96;96.31
12666;BME280;58531;59.050;17.416;2022-08-03T00:13:05;100802.78;;;13.97;96.54
12666;BME280;58531;59.050;17.416;2022-08-03T00:15:32;100796.06;;;13.92;95.62
12666;BME280;58531;59.050;17.416;2022-08-03T00:17:58;100799.50;;;13.93;95.62
12666;BME280;58531;59.050;17.416;2022-08-03T00:20:25;100803.69;;;13.85;92.41
12666;BME280;58531;59.050;17.416;2022-08-03T00:22:52;100804.00;;;13.78;92.28
12666;BME280;58531;59.050;17.416;2022-08-03T00:25:20;100802.09;;;13.69;91.74
12666;BME280;58531;59.050;17.416;2022-08-03T00:27:46;100803.91;;;13.63;91.62
12666;BME280;58531;59.050;17.416;2022-08-03T00:30:13;100808.06;;;13.64;91.75
12666;BME280;58531;59.050;17.416;2022-08-03T00:32:39;100808.50;;;13.63;90.74
12666;BME280;58531;59.050;17.416;2022-08-03T00:35:07;100810.75;;;13.64;90.86
12666;BME280;58531;59.050;17.416;2022-08-03T00:37:34;100812.84;;;13.69;90.61
12666;BME280;58531;59.050;17.416;2022-08-03T00:40:00;100817.59;;;13.74;91.52
12666;BME280;58531;59.050;17.416;2022-08-03T00:42:28;100817.44;;;13.78;91.77
12666;BME280;58531;59.050;17.416;2022-08-03T00:44:55;100819.94;;;13.81;91.62
12666;BME280;58531;59.050;17.416;2022-08-03T00:47:21;100806.41;;;13.76;92.92
12666;BME280;58531;59.050;17.416;2022-08-03T00:49:48;100803.44;;;13.74;92.53
12666;BME280;58531;59.050;17.416;2022-08-03T00:52:15;100808.22;;;13.70;93.53
12666;BME280;58531;59.050;17.416;2022-08-03T00:54:41;100807.00;;;13.71;93.21
12666;BME280;58531;59.050;17.416;2022-08-03T00:57:08;100801.66;;;13.71;93.05
12666;BME280;58531;59.050;17.416;2022-08-03T00:59:36;100807.31;;;13.73;92.96
12666;BME280;58531;59.050;17.416;2022-08-03T01:02:04;100798.34;;;13.76;92.53
12666;BME280;58531;59.050;17.416;2022-08-03T01:04:30;100796.44;;;13.76;92.29
12666;BME280;58531;59.050;17.416;2022-08-03T01:07:05;100788.38;;;13.76;92.31
12666;BME280;58531;59.050;17.416;2022-08-03T01:09:40;100785.41;;;13.74;92.55
12666;BME280;58531;59.050;17.416;2022-08-03T01:12:13;100788.50;;;13.73;93.04
12666;BME280;58531;59.050;17.416;2022-08-03T01:14:50;100785.53;;;13.71;92.85
12666;BME280;58531;59.050;17.416;2022-08-03T01:17:23;100786.00;;;13.69;92.77
12666;BME280;58531;59.050;17.416;2022-08-03T01:19:55;100788.22;;;13.71;92.83
12666;BME280;58531;59.050;17.416;2022-08-03T01:22:39;100776.91;;;13.67;93.38
12666;BME280;58531;59.050;17.416;2022-08-03T01:25:22;100776.91;;;13.67;92.92
12666;BME280;58531;59.050;17.416;2022-08-03T01:27:55;100767.94;;;13.70;92.73
12666;BME280;58531;59.050;17.416;2022-08-03T01:30:28;100760.34;;;13.68;92.86
12666;BME280;58531;59.050;17.416;2022-08-03T01:32:59;100761.41;;;13.62;92.96
12666;BME280;58531;59.050;17.416;2022-08-03T01:35:32;100762.59;;;13.61;93.46
12666;BME280;58531;59.050;17.416;2022-08-03T01:38:03;100764.38;;;13.64;93.20
12666;BME280;58531;59.050;17.416;2022-08-03T01:40:33;100753.53;;;13.58;93.37
12666;BME280;58531;59.050;17.416;2022-08-03T01:43:03;100748.88;;;13.59;93.58
12666;BME280;58531;59.050;17.416;2022-08-03T01:45:33;100748.75;;;13.62;93.12
12666;BME280;58531;59.050;17.416;2022-08-03T01:48:02;100747.25;;;13.61;93.38
12666;BME280;58531;59.050;17.416;2022-08-03T01:50:30;100741.72;;;13.65;92.80
12666;BME280;58531;59.050;17.416;2022-08-03T01:52:59;100746.66;;;13.66;92.46
12666;BME280;58531;59.050;17.416;2022-08-03T01:55:26;100742.47;;;13.65;92.34
12666;BME280;58531;59.050;17.416;2022-08-03T01:57:57;100750.06;;;13.67;92.30
12666;BME280;58531;59.050;17.416;2022-08-03T02:00:26;100747.66;;;13.69;91.92
12666;BME280;58531;59.050;17.416;2022-08-03T02:02:55;100744.38;;;13.74;91.34
12666;BME280;58531;59.050;17.416;2022-08-03T02:05:22;100741.88;;;13.70;91.80
12666;BME280;58531;59.050;17.416;2022-08-03T02:07:50;100739.91;;;13.71;91.67
12666;BME280;58531;59.050;17.416;2022-08-03T02:10:18;100737.50;;;13.73;91.21
12666;BME280;58531;59.050;17.416;2022-08-03T02:12:47;100735.72;;;13.70;91.68
12666;BME280;58531;59.050;17.416;2022-08-03T02:15:15;100745.28;;;13.71;91.39
12666;BME280;58531;59.050;17.416;2022-08-03T02:17:44;100748.84;;;13.77;91.29
12666;BME280;58531;59.050;17.416;2022-08-03T02:20:14;100742.16;;;13.72;91.28
12666;BME280;58531;59.050;17.416;2022-08-03T02:22:42;100744.38;;;13.74;90.86
12666;BME280;58531;59.050;17.416;2022-08-03T02:25:11;100739.00;;;13.74;90.48
12666;BME280;58531;59.050;17.416;2022-08-03T02:27:41;100746.75;;;13.72;91.19
12666;BME280;58531;59.050;17.416;2022-08-03T02:30:11;100745.88;;;13.75;90.61
12666;BME280;58531;59.050;17.416;2022-08-03T02:32:40;100744.50;;;13.79;90.54
12666;BME280;58531;59.050;17.416;2022-08-03T02:35:10;100744.06;;;13.81;90.43
12666;BME280;58531;59.050;17.416;2022-08-03T02:37:41;100740.91;;;13.82;90.89
12666;BME280;58531;59.050;17.416;2022-08-03T02:40:09;100738.97;;;13.83;90.95
12666;BME280;58531;59.050;17.416;2022-08-03T02:42:39;100742.56;;;13.80;90.87
12666;BME280;58531;59.050;17.416;2022-08-03T02:45:09;100732.16;;;13.73;90.91
12666;BME280;58531;59.050;17.416;2022-08-03T02:47:39;100734.84;;;13.64;91.11
12666;BME280;58531;59.050;17.416;2022-08-03T02:50:08;100737.00;;;13.51;90.80
12666;BME280;58531;59.050;17.416;2022-08-03T02:52:37;100731.34;;;13.40;91.15
12666;BME280;58531;59.050;17.416;2022-08-03T02:55:06;100731.06;;;13.29;91.63
12666;BME280;58531;59.050;17.416;2022-08-03T02:57:36;100738.53;;;13.16;92.23
12666;BME280;58531;59.050;17.416;2022-08-03T03:00:04;100731.97;;;13.08;92.17
12666;BME280;58531;59.050;17.416;2022-08-03T03:02:30;100726.03;;;13.04;92.39
12666;BME280;58531;59.050;17.416;2022-08-03T03:04:58;100730.81;;;13.00;92.82
12666;BME280;58531;59.050;17.416;2022-08-03T03:07:27;100732.16;;;12.96;92.83
12666;BME280;58531;59.050;17.416;2022-08-03T03:09:54;100731.72;;;12.97;93.42
12666;BME280;58531;59.050;17.416;2022-08-03T03:12:23;100737.94;;;13.03;93.76
12666;BME280;58531;59.050;17.416;2022-08-03T03:14:52;100734.66;;;13.17;94.27
12666;BME280;58531;59.050;17.416;2022-08-03T03:17:19;100743.41;;;13.35;94.62
12666;BME280;58531;59.050;17.416;2022-08-03T03:19:48;100740.25;;;13.55;93.29
12666;BME280;58531;59.050;17.416;2022-08-03T03:22:16;100742.44;;;13.74;93.15
12666;BME280;58531;59.050;17.416;2022-08-03T03:24:44;100741.16;;;13.93;92.21
12666;BME280;58531;59.050;17.416;2022-08-03T03:27:13;100741.25;;;14.08;91.84
12666;BME280;58531;59.050;17.416;2022-08-03T03:29:41;100734.94;;;14.19;91.88
12666;BME280;58531;59.050;17.416;2022-08-03T03:32:08;100737.31;;;14.26;91.81
12666;BME280;58531;59.050;17.416;2022-08-03T03:34:35;100743.84;;;14.34;91.62
12666;BME280;58531;59.050;17.416;2022-08-03T03:37:02;100738.41;;;14.43;90.89
12666;BME280;58531;59.050;17.416;2022-08-03T03:39:30;100743.53;;;14.56;89.98
12666;BME280;58531;59.050;17.416;2022-08-03T03:41:57;100744.50;;;14.67;89.81
12666;BME280;58531;59.050;17.416;2022-08-03T03:44:25;100744.72;;;14.78;89.46
12666;BME280;58531;59.050;17.416;2022-08-03T03:46:54;100746.59;;;14.87;88.69
12666;BME280;58531;59.050;17.416;2022-08-03T03:49:21;100742.28;;;15.04;87.14
12666;BME280;58531;59.050;17.416;2022-08-03T03:51:48;100742.75;;;15.02;87.32
12666;BME280;58531;59.050;17.416;2022-08-03T03:54:17;100735.91;;;15.01;86.75
12666;BME280;58531;59.050;17.416;2022-08-03T03:56:44;100751.38;;;15.06;86.89
12666;BME280;58531;59.050;17.416;2022-08-03T03:59:10;100750.16;;;15.07;87.07
12666;BME280;58531;59.050;17.416;2022-08-03T04:01:37;100746.66;;;15.01;87.12
12666;BME280;58531;59.050;17.416;2022-08-03T04:04:05;100742.91;;;14.99;87.13
12666;BME280;58531;59.050;17.416;2022-08-03T04:06:46;100747.38;;;15.02;86.87
12666;BME280;58531;59.050;17.416;2022-08-03T04:09:31;100751.28;;;15.15;87.26
12666;BME280;58531;59.050;17.416;2022-08-03T04:12:18;100745.28;;;15.20;86.75
12666;BME280;58531;59.050;17.416;2022-08-03T04:14:48;100752.81;;;15.31;85.88
12666;BME280;58531;59.050;17.416;2022-08-03T04:17:17;100749.31;;;15.39;85.49
12666;BME280;58531;59.050;17.416;2022-08-03T04:19:49;100755.63;;;15.50;84.08
12666;BME280;58531;59.050;17.416;2022-08-03T04:22:20;100750.88;;;15.60;84.20
12666;BME280;58531;59.050;17.416;2022-08-03T04:24:51;100745.88;;;15.67;84.10
12666;BME280;58531;59.050;17.416;2022-08-03T04:27:21;100751.69;;;15.95;82.65
12666;BME280;58531;59.050;17.416;2022-08-03T04:29:50;100744.84;;;16.14;82.60
12666;BME280;58531;59.050;17.416;2022-08-03T04:32:19;100738.91;;;16.44;80.73
12666;BME280;58531;59.050;17.416;2022-08-03T04:34:49;100749.50;;;16.67;78.65
12666;BME280;58531;59.050;17.416;2022-08-03T04:37:22;100752.66;;;16.86;78.87
12666;BME280;58531;59.050;17.416;2022-08-03T04:39:52;100737.34;;;16.97;76.90
12666;BME280;58531;59.050;17.416;2022-08-03T04:42:22;100749.81;;;17.40;76.10
12666;BME280;58531;59.050;17.416;2022-08-03T04:44:50;100750.78;;;17.68;75.37
12666;BME280;58531;59.050;17.416;2022-08-03T04:47:18;100744.59;;;17.93;73.38
12666;BME280;58531;59.050;17.416;2022-08-03T04:49:45;100748.44;;;17.81;74.33
12666;BME280;58531;59.050;17.416;2022-08-03T04:52:14;100755.72;;;17.70;74.14
12666;BME280;58531;59.050;17.416;2022-08-03T04:54:41;100759.19;;;17.76;73.62
12666;BME280;58531;59.050;17.416;2022-08-03T04:57:09;100760.63;;;17.71;74.55
12666;BME280;58531;59.050;17.416;2022-08-03T04:59:36;100752.63;;;17.51;75.00
12666;BME280;58531;59.050;17.416;2022-08-03T05:02:03;100753.84;;;17.50;75.29
12666;BME280;58531;59.050;17.416;2022-08-03T05:04:31;100753.88;;;17.30;76.29
12666;BME280;58531;59.050;17.416;2022-08-03T05:06:57;100765.47;;;17.36;76.15
12666;BME280;58531;59.050;17.416;2022-08-03T05:09:25;100760.97;;;17.28;75.31
12666;BME280;58531;59.050;17.416;2022-08-03T05:11:52;100764.81;;;17.21;76.01
12666;BME280;58531;59.050;17.416;2022-08-03T05:14:19;100765.50;;;17.16;75.29
12666;BME280;58531;59.050;17.416;2022-08-03T05:16:46;100773.84;;;17.18;77.24
12666;BME280;58531;59.050;17.416;2022-08-03T05:19:12;100759.94;;;17.25;75.21
12666;BME280;58531;59.050;17.416;2022-08-03T05:21:39;100768.56;;;17.29;76.27
12666;BME280;58531;59.050;17.416;2022-08-03T05:24:06;100773.16;;;17.43;76.53
12666;BME280;58531;59.050;17.416;2022-08-03T05:26:34;100769.16;;;17.64;74.89
12666;BME280;58531;59.050;17.416;2022-08-03T05:29:01;100775.25;;;17.59;74.91
12666;BME280;58531;59.050;17.416;2022-08-03T05:31:28;100776.41;;;17.47;76.00
12666;BME280;58531;59.050;17.416;2022-08-03T05:33:56;100781.63;;;17.56;74.79
12666;BME280;58531;59.050;17.416;2022-08-03T05:36:23;100773.19;;;17.49;74.67
12666;BME280;58531;59.050;17.416;2022-08-03T05:38:49;100775.03;;;17.32;75.78
12666;BME280;58531;59.050;17.416;2022-08-03T05:41:16;100775.09;;;17.43;76.05
12666;BME280;58531;59.050;17.416;2022-08-03T05:43:44;100768.41;;;17.58;75.42
12666;BME280;58531;59.050;17.416;2022-08-03T05:46:11;100772.66;;;17.70;75.43
12666;BME280;58531;59.050;17.416;2022-08-03T05:48:38;100766.94;;;17.93;74.40
12666;BME280;58531;59.050;17.416;2022-08-03T05:51:05;100782.03;;;18.11;74.97
12666;BME280;58531;59.050;17.416;2022-08-03T05:53:35;100780.50;;;17.99;74.01
12666;BME280;58531;59.050;17.416;2022-08-03T05:56:02;100784.84;;;17.91;73.89
12666;BME280;58531;59.050;17.416;2022-08-03T05:58:29;100784.25;;;17.76;76.23
12666;BME280;58531;59.050;17.416;2022-08-03T06:00:57;100782.50;;;17.73;75.76
12666;BME280;58531;59.050;17.416;2022-08-03T06:03:24;100796.06;;;17.79;75.52
12666;BME280;58531;59.050;17.416;2022-08-03T06:05:52;100784.94;;;18.02;74.40
12666;BME280;58531;59.050;17.416;2022-08-03T06:08:20;100782.94;;;17.97;74.61
12666;BME280;58531;59.050;17.416;2022-08-03T06:10:47;100787.91;;;18.04;74.91
12666;BME280;58531;59.050;17.416;2022-08-03T06:13:14;100783.06;;;18.13;74.90
12666;BME280;58531;59.050;17.416;2022-08-03T06:15:40;100789.72;;;18.18;74.74
12666;BME280;58531;59.050;17.416;2022-08-03T06:18:08;100779.31;;;18.42;73.32
12666;BME280;58531;59.050;17.416;2022-08-03T06:20:35;100786.22;;;18.43;73.35
12666;BME280;58531;59.050;17.416;2022-08-03T06:23:02;100784.56;;;18.56;72.99
12666;BME280;58531;59.050;17.416;2022-08-03T06:25:28;100778.16;;;18.59;72.84
12666;BME280;58531;59.050;17.416;2022-08-03T06:27:55;100786.59;;;18.78;72.83
12666;BME280;58531;59.050;17.416;2022-08-03T06:30:22;100785.06;;;18.55;72.26
12666;BME280;58531;59.050;17.416;2022-08-03T06:32:48;100779.66;;;18.60;71.88
12666;BME280;58531;59.050;17.416;2022-08-03T06:35:16;100775.16;;;19.04;71.39
12666;BME280;58531;59.050;17.416;2022-08-03T06:37:44;100781.38;;;20.20;67.84
12666;BME280;58531;59.050;17.416;2022-08-03T06:40:12;100778.78;;;21.23;63.72
12666;BME280;58531;59.050;17.416;2022-08-03T06:42:39;100777.66;;;22.54;59.20
12666;BME280;58531;59.050;17.416;2022-08-03T06:45:07;100769.03;;;22.02;57.84
12666;BME280;58531;59.050;17.416;2022-08-03T06:47:34;100772.50;;;22.51;59.79
12666;BME280;58531;59.050;17.416;2022-08-03T06:50:01;100776.47;;;24.30;55.05
12666;BME280;58531;59.050;17.416;2022-08-03T06:52:29;100784.91;;;25.58;47.85
12666;BME280;58531;59.050;17.416;2022-08-03T06:54:56;100793.59;;;26.81;48.60
12666;BME280;58531;59.050;17.416;2022-08-03T06:57:22;100789.41;;;28.35;42.96
12666;BME280;58531;59.050;17.416;2022-08-03T06:59:49;100799.53;;;30.17;40.35
12666;BME280;58531;59.050;17.416;2022-08-03T07:02:16;100796.56;;;29.24;40.35
12666;BME280;58531;59.050;17.416;2022-08-03T07:04:44;100798.59;;;29.97;39.66
12666;BME280;58531;59.050;17.416;2022-08-03T07:07:11;100793.66;;;30.54;38.29
12666;BME280;58531;59.050;17.416;2022-08-03T07:09:39;100791.63;;;29.96;39.48
12666;BME280;58531;59.050;17.416;2022-08-03T07:12:06;100793.34;;;29.11;40.88
12666;BME280;58531;59.050;17.416;2022-08-03T07:14:32;100789.09;;;27.64;44.54
12666;BME280;58531;59.050;17.416;2022-08-03T07:16:59;100785.94;;;28.35;42.78
12666;BME280;58531;59.050;17.416;2022-08-03T07:19:26;100787.03;;;28.39;43.49
12666;BME280;58531;59.050;17.416;2022-08-03T07:21:52;100789.63;;;28.30;43.12
12666;BME280;58531;59.050;17.416;2022-08-03T07:24:19;100790.44;;;26.62;46.01
12666;BME280;58531;59.050;17.416;2022-08-03T07:26:47;100792.16;;;25.48;50.68
12666;BME280;58531;59.050;17.416;2022-08-03T07:29:14;100795.41;;;24.67;52.08
12666;BME280;58531;59.050;17.416;2022-08-03T07:31:40;100794.34;;;24.57;52.26
12666;BME280;58531;59.050;17.416;2022-08-03T07:34:07;100788.41;;;23.89;54.09
12666;BME280;58531;59.050;17.416;2022-08-03T07:36:34;100789.81;;;23.77;54.47
12666;BME280;58531;59.050;17.416;2022-08-03T07:39:00;100795.31;;;23.58;55.40
12666;BME280;58531;59.050;17.416;2022-08-03T07:41:27;100799.41;;;22.96;57.57
12666;BME280;58531;59.050;17.416;2022-08-03T07:43:55;100794.47;;;22.76;57.30
12666;BME280;58531;59.050;17.416;2022-08-03T07:46:21;100796.84;;;22.85;57.25
12666;BME280;58531;59.050;17.416;2022-08-03T07:48:48;100801.13;;;22.33;59.14
12666;BME280;58531;59.050;17.416;2022-08-03T07:51:15;100798.66;;;22.06;60.29
12666;BME280;58531;59.050;17.416;2022-08-03T07:53:41;100794.59;;;22.18;60.40
12666;BME280;58531;59.050;17.416;2022-08-03T07:56:08;100795.00;;;22.03;60.97
12666;BME280;58531;59.050;17.416;2022-08-03T07:58:35;100800.72;;;22.48;59.60
12666;BME280;58531;59.050;17.416;2022-08-03T08:01:03;100802.44;;;22.27;59.88
12666;BME280;58531;59.050;17.416;2022-08-03T08:03:29;100802.25;;;22.19;60.26
12666;BME280;58531;59.050;17.416;2022-08-03T08:05:58;100796.09;;;21.89;62.10
12666;BME280;58531;59.050;17.416;2022-08-03T08:08:24;100792.31;;;21.98;61.98
12666;BME280;58531;59.050;17.416;2022-08-03T08:10:51;100782.34;;;21.82;62.62
12666;BME280;58531;59.050;17.416;2022-08-03T08:13:17;100779.88;;;21.78;62.36
12666;BME280;58531;59.050;17.416;2022-08-03T08:15:44;100788.63;;;21.95;61.81
12666;BME280;58531;59.050;17.416;2022-08-03T08:18:12;100793.25;;;21.76;61.95
12666;BME280;58531;59.050;17.416;2022-08-03T08:20:39;100803.84;;;21.80;63.84
12666;BME280;58531;59.050;17.416;2022-08-03T08:23:08;100792.97;;;22.09;61.68
12666;BME280;58531;59.050;17.416;2022-08-03T08:25:35;100792.28;;;22.27;60.80
12666;BME280;58531;59.050;17.416;2022-08-03T08:28:02;100791.50;;;22.56;61.46
12666;BME280;58531;59.050;17.416;2022-08-03T08:30:30;100783.09;;;22.54;59.80
12666;BME280;58531;59.050;17.416;2022-08-03T08:32:57;100797.63;;;22.80;59.54
12666;BME280;58531;59.050;17.416;2022-08-03T08:35:25;100789.28;;;22.73;60.39
12666;BME280;58531;59.050;17.416;2022-08-03T08:37:52;100775.94;;;22.93;59.01
12666;BME280;58531;59.050;17.416;2022-08-03T08:40:20;100780.47;;;23.72;56.67
12666;BME280;58531;59.050;17.416;2022-08-03T08:42:47;100775.13;;;23.67;55.69
12666;BME280;58531;59.050;17.416;2022-08-03T08:45:14;100775.59;;;23.84;56.36
12666;BME280;58531;59.050;17.416;2022-08-03T08:47:45;100772.06;;;24.01;56.25
12666;BME280;58531;59.050;17.416;2022-08-03T08:50:12;100770.03;;;24.02;56.92
12666;BME280;58531;59.050;17.416;2022-08-03T08:52:40;100774.50;;;24.31;58.10
12666;BME280;58531;59.050;17.416;2022-08-03T08:55:08;100771.53;;;24.29;54.91
12666;BME280;58531;59.050;17.416;2022-08-03T08:57:37;100783.78;;;23.84;58.23
12666;BME280;58531;59.050;17.416;2022-08-03T09:00:05;100778.31;;;23.84;57.65
12666;BME280;58531;59.050;17.416;2022-08-03T09:02:33;100783.00;;;24.14;57.83
12666;BME280;58531;59.050;17.416;2022-08-03T09:05:00;100771.66;;;24.49;56.83
12666;BME280;58531;59.050;17.416;2022-08-03T09:07:27;100764.66;;;24.87;53.99
12666;BME280;58531;59.050;17.416;2022-08-03T09:09:57;100762.16;;;24.76;54.68
12666;BME280;58531;59.050;17.416;2022-08-03T09:12:24;100755.81;;;24.94;53.63
12666;BME280;58531;59.050;17.416;2022-08-03T09:14:50;100759.56;;;25.04;55.57
12666;BME280;58531;59.050;17.416;2022-08-03T09:17:17;100759.59;;;25.37;53.23
12666;BME280;58531;59.050;17.416;2022-08-03T09:20:03;100766.25;;;25.49;52.42
12666;BME280;58531;59.050;17.416;2022-08-03T09:22:30;100764.88;;;24.89;53.47
12666;BME280;58531;59.050;17.416;2022-08-03T09:25:00;100762.78;;;24.82;52.91
12666;BME280;58531;59.050;17.416;2022-08-03T09:27:27;100764.47;;;24.85;53.92
12666;BME280;58531;59.050;17.416;2022-08-03T09:29:54;100762.75;;;24.95;53.70
12666;BME280;58531;59.050;17.416;2022-08-03T09:32:22;100778.44;;;25.28;54.24
12666;BME280;58531;59.050;17.416;2022-08-03T09:34:50;100773.75;;;25.77;53.55
12666;BME280;58531;59.050;17.416;2022-08-03T09:37:19;100773.38;;;26.21;52.25
12666;BME280;58531;59.050;17.416;2022-08-03T09:39:49;100778.41;;;25.82;51.93
12666;BME280;58531;59.050;17.416;2022-08-03T09:42:18;100789.47;;;25.35;52.72
12666;BME280;58531;59.050;17.416;2022-08-03T09:44:47;100793.22;;;25.66;52.91
12666;BME280;58531;59.050;17.416;2022-08-03T09:47:25;100785.13;;;25.81;52.35
12666;BME280;58531;59.050;17.416;2022-08-03T09:49:56;100784.19;;;25.58;52.86
12666;BME280;58531;59.050;17.416;2022-08-03T09:52:30;100780.34;;;25.74;52.47
12666;BME280;58531;59.050;17.416;2022-08-03T09:54:58;100777.00;;;25.88;52.06
12666;BME280;58531;59.050;17.416;2022-08-03T09:57:27;100778.66;;;25.91;52.99
12666;BME280;58531;59.050;17.416;2022-08-03T10:00:05;100776.44;;;25.90;51.51
12666;BME280;58531;59.050;17.416;2022-08-03T10:02:34;100772.59;;;25.85;53.45
12666;BME280;58531;59.050;17.416;2022-08-03T10:05:01;100767.19;;;26.21;52.07
12666;BME280;58531;59.050;17.416;2022-08-03T10:07:28;100768.66;;;26.22;51.07
12666;BME280;58531;59.050;17.416;2022-08-03T10:09:56;100767.88;;;26.14;51.78
12666;BME280;58531;59.050;17.416;2022-08-03T10:12:24;100777.53;;;25.46;51.98
12666;BME280;58531;59.050;17.416;2022-08-03T10:14:52;100767.13;;;25.65;52.10
12666;BME280;58531;59.050;17.416;2022-08-03T10:17:19;100759.38;;;25.56;52.97
12666;BME280;58531;59.050;17.416;2022-08-03T10:19:47;100759.50;;;25.71;51.82
12666;BME280;58531;59.050;17.416;2022-08-03T10:22:15;100763.16;;;25.94;52.06
12666;BME280;58531;59.050;17.416;2022-08-03T10:24:48;100759.41;;;26.04;51.28
12666;BME280;58531;59.050;17.416;2022-08-03T10:27:16;100755.09;;;25.68;52.45
12666;BME280;58531;59.050;17.416;2022-08-03T10:29:48;100763.53;;;25.49;54.49
12666;BME280;58531;59.050;17.416;2022-08-03T10:32:21;100762.91;;;25.64;53.13
12666;BME280;58531;59.050;17.416;2022-08-03T10:34:50;100761.34;;;25.76;53.50
12666;BME280;58531;59.050;17.416;2022-08-03T10:37:20;100763.84;;;25.66;52.80
12666;BME280;58531;59.050;17.416;2022-08-03T10:39:50;100751.41;;;25.86;51.56
12666;BME280;58531;59.050;17.416;2022-08-03T10:42:22;100750.31;;;25.40;52.99
12666;BME280;58531;59.050;17.416;2022-08-03T10:45:02;100758.25;;;24.98;54.24
12666;BME280;58531;59.050;17.416;2022-08-03T10:47:32;100762.72;;;25.21;56.44
12666;BME280;58531;59.050;17.416;2022-08-03T10:50:02;100766.97;;;25.91;54.05
12666;BME280;58531;59.050;17.416;2022-08-03T10:52:28;100764.81;;;25.97;51.76
12666;BME280;58531;59.050;17.416;2022-08-03T10:54:55;100771.78;;;25.98;52.12
12666;BME280;58531;59.050;17.416;2022-08-03T10:57:47;100770.72;;;25.19;52.73
12666;BME280;58531;59.050;17.416;2022-08-03T11:00:15;100772.50;;;24.57;55.92
12666;BME280;58531;59.050;17.416;2022-08-03T11:03:07;100768.91;;;24.10;56.62
12666;BME280;58531;59.050;17.416;2022-08-03T11:05:37;100777.41;;;23.94;57.12
12666;BME280;58531;59.050;17.416;2022-08-03T11:08:18;100768.38;;;23.55;59.40
12666;BME280;58531;59.050;17.416;2022-08-03T11:10:45;100770.94;;;23.16;59.63
12666;BME280;58531;59.050;17.416;2022-08-03T11:13:14;100776.97;;;22.90;60.33
12666;BME280;58531;59.050;17.416;2022-08-03T11:15:45;100773.41;;;22.77;62.38
12666;BME280;58531;59.050;17.416;2022-08-03T11:18:16;100768.53;;;22.70;62.12
12666;BME280;58531;59.050;17.416;2022-08-03T11:20:48;100767.00;;;22.93;61.04
12666;BME280;58531;59.050;17.416;2022-08-03T11:23:20;100760.16;;;23.05;61.67
12666;BME280;58531;59.050;17.416;2022-08-03T11:26:09;100759.06;;;24.07;58.58
12666;BME280;58531;59.050;17.416;2022-08-03T11:28:36;100745.38;;;24.72;56.69
12666;BME280;58531;59.050;17.416;2022-08-03T11:31:44;100742.03;;;24.66;56.33
12666;BME280;58531;59.050;17.416;2022-08-03T11:34:15;100745.72;;;24.43;57.90
12666;BME280;58531;59.050;17.416;2022-08-03T11:37:20;100751.91;;;24.17;58.35
12666;BME280;58531;59.050;17.416;2022-08-03T11:39:50;100735.94;;;23.96;58.08
12666;BME280;58531;59.050;17.416;2022-08-03T11:42:39;100735.00;;;24.32;58.13
12666;BME280;58531;59.050;17.416;2022-08-03T11:45:08;100733.94;;;24.61;57.46
12666;BME280;58531;59.050;17.416;2022-08-03T11:47:38;100736.97;;;24.44;56.79
12666;BME280;58531;59.050;17.416;2022-08-03T11:50:07;100724.59;;;24.43;57.56
12666;BME280;58531;59.050;17.416;2022-08-03T11:52:38;100726.69;;;24.63;57.30
12666;BME280;58531;59.050;17.416;2022-08-03T11:55:13;100723.44;;;24.98;58.04
12666;BME280;58531;59.050;17.416;2022-08-03T11:57:40;100714.19;;;25.01;56.64
12666;BME280;58531;59.050;17.416;2022-08-03T12:00:26;100716.16;;;25.01;55.53
12666;BME280;58531;59.050;17.416;2022-08-03T12:02:59;100723.97;;;24.63;56.53
12666;BME280;58531;59.050;17.416;2022-08-03T12:05:54;100722.16;;;24.66;57.30
12666;BME280;58531;59.050;17.416;2022-08-03T12:08:31;100727.88;;;24.88;56.43
12666;BME280;58531;59.050;17.416;2022-08-03T12:10:59;100727.09;;;25.01;57.07
12666;BME280;58531;59.050;17.416;2022-08-03T12:13:35;100720.66;;;25.11;57.52
12666;BME280;58531;59.050;17.416;2022-08-03T12:16:02;100716.91;;;25.01;55.73
12666;BME280;58531;59.050;17.416;2022-08-03T12:18:29;100708.50;;;24.99;56.76
12666;BME280;58531;59.050;17.416;2022-08-03T12:21:05;100715.91;;;25.12;56.97
12666;BME280;58531;59.050;17.416;2022-08-03T12:23:33;100720.88;;;25.33;55.64
12666;BME280;58531;59.050;17.416;2022-08-03T12:26:03;100707.03;;;25.31;55.41
12666;BME280;58531;59.050;17.416;2022-08-03T12:28:30;100708.63;;;25.47;54.77
12666;BME280;58531;59.050;17.416;2022-08-03T12:31:00;100707.72;;;25.73;54.30
12666;BME280;58531;59.050;17.416;2022-08-03T12:33:28;100706.38;;;25.87;53.02
12666;BME280;58531;59.050;17.416;2022-08-03T12:36:05;100707.44;;;25.63;55.01
12666;BME280;58531;59.050;17.416;2022-08-03T12:38:33;100702.34;;;25.60;55.30
12666;BME280;58531;59.050;17.416;2022-08-03T12:41:02;100708.06;;;25.49;54.67
12666;BME280;58531;59.050;17.416;2022-08-03T12:43:29;100707.69;;;25.45;54.19
12666;BME280;58531;59.050;17.416;2022-08-03T12:46:10;100710.00;;;25.21;55.02
12666;BME280;58531;59.050;17.416;2022-08-03T12:48:59;100715.25;;;25.59;56.11
12666;BME280;58531;59.050;17.416;2022-08-03T12:51:28;100713.69;;;25.92;53.16